sensor_id;sensor_type;location;lat;lon;timestamp;pressure;altitude;pressure_sealevel;temperature;humidity
12219;BME280;6172;42.646;23.344;2022-12-29T00:01:31;95538.25;;;2.67;100.00
12219;BME280;6172;42.646;23.344;2022-12-29T00:03:58;95538.44;;;2.74;100.00
12219;BME280;6172;42.646;23.344;2022-12-29T00:06:25;95531.91;;;2.20;100.00
12219;BME280;6172;42.646;23.344;2022-12-29T00:08:52;95533.56;;;2.25;100.00
12219;BME280;6172;42.646;23.344;2022-12-29T00:11:21;95535.47;;;2.24;100.00
12219;BME280;6172;42.646;23.344;2022-12-29T00:13:49;95536.66;;;2.39;100.00
12219;BME280;6172;42.646;23.344;2022-12-29T00:16:34;95547.31;;;2.35;100.00
12219;BME280;6172;42.646;23.344;2022-12-29T00:19:02;95545.53;;;2.39;100.00
12219;BME280;6172;42.646;23.344;2022-12-29T00:21:29;95535.59;;;2.16;100.00
12219;BME280;6172;42.646;23.344;2022-12-29T00:24:17;95544.41;;;2.40;100.00
12219;BME280;6172;42.646;23.344;2022-12-29T00:27:11;95542.59;;;2.44;100.00
12219;BME280;6172;42.646;23.344;2022-12-29T00:29:56;95542.22;;;2.58;100.00
12219;BME280;6172;42.646;23.344;2022-12-29T00:32:41;95542.56;;;2.56;100.00
12219;BME280;6172;42.646;23.344;2022-12-29T00:35:29;95540.72;;;2.72;100.00
12219;BME280;6172;42.646;23.344;2022-12-29T00:38:00;95543.91;;;2.50;100.00
12219;BME280;6172;42.646;23.344;2022-12-29T00:40:45;95543.53;;;2.64;100.00
12219;BME280;6172;42.646;23.344;2022-12-29T00:43:31;95538.53;;;2.78;100.00
12219;BME280;6172;42.646;23.344;2022-12-29T00:46:15;95541.13;;;2.74;100.00
12219;BME280;6172;42.646;23.344;2022-12-29T00:48:42;95537.81;;;2.65;100.00
12219;BME280;6172;42.646;23.344;2022-12-29T00:51:26;95547.38;;;2.78;100.00
12219;BME280;6172;42.646;23.344;2022-12-29T00:53:53;95548.03;;;2.87;100.00
12219;BME280;6172;42.646;23.344;2022-12-29T00:56:20;95541.38;;;2.97;100.00
12219;BME280;6172;42.646;23.344;2022-12-29T00:58:48;95545.59;;;2.82;100.00
12219;BME280;6172;42.646;23.344;2022-12-29T01:01:15;95545.28;;;2.72;100.00
12219;BME280;6172;42.646;23.344;2022-12-29T01:03:42;95540.97;;;2.83;100.00
12219;BME280;6172;42.646;23.344;2022-12-29T01:06:11;95548.63;;;2.81;100.00
12219;BME280;6172;42.646;23.344;2022-12-29T01:08:38;95548.81;;;2.60;100.00
12219;BME280;6172;42.646;23.344;2022-12-29T01:11:06;95546.81;;;2.57;100.00
12219;BME280;6172;42.646;23.344;2022-12-29T01:13:33;95547.19;;;2.71;100.00
12219;BME280;6172;42.646;23.344;2022-12-29T01:16:01;95531.59;;;2.77;100.00
12219;BME280;6172;42.646;23.344;2022-12-29T01:18:28;95543.06;;;2.74;100.00
12219;BME280;6172;42.646;23.344;2022-12-29T01:20:59;95540.81;;;2.91;100.00
12219;BME280;6172;42.646;23.344;2022-12-29T01:23:26;95534.41;;;2.96;100.00
12219;BME280;6172;42.646;23.344;2022-12-29T01:25:53;95531.47;;;3.01;100.00
12219;BME280;6172;42.646;23.344;2022-12-29T01:28:20;95528.25;;;2.95;100.00
12219;BME280;6172;42.646;23.344;2022-12-29T01:30:49;95522.22;;;2.71;100.00
12219;BME280;6172;42.646;23.344;2022-12-29T01:33:17;95538.31;;;2.55;100.00
12219;BME280;6172;42.646;23.344;2022-12-29T01:35:44;95527.28;;;2.60;100.00
12219;BME280;6172;42.646;23.344;2022-12-29T01:38:11;95526.69;;;2.67;100.00
12219;BME280;6172;42.646;23.344;2022-12-29T01:40:44;95523.81;;;2.60;100.00
12219;BME280;6172;42.646;23.344;2022-12-29T01:43:13;95535.38;;;2.60;100.00
12219;BME280;6172;42.646;23.344;2022-12-29T01:45:44;95530.50;;;2.66;100.00
12219;BME280;6172;42.646;23.344;2022-12-29T01:48:15;95522.03;;;2.64;100.00
12219;BME280;6172;42.646;23.344;2022-12-29T01:50:46;95516.06;;;2.58;100.00
12219;BME280;6172;42.646;23.344;2022-12-29T01:53:18;95517.88;;;2.54;100.00
12219;BME280;6172;42.646;23.344;2022-12-29T01:55:50;95525.09;;;2.50;100.00
12219;BME280;6172;42.646;23.344;2022-12-29T01:58:20;95519.91;;;2.57;100.00
12219;BME280;6172;42.646;23.344;2022-12-29T02:00:48;95506.94;;;2.47;100.00
12219;BME280;6172;42.646;23.344;2022-12-29T02:03:16;95516.91;;;2.47;100.00
12219;BME280;6172;42.646;23.344;2022-12-29T02:05:48;95516.56;;;2.48;100.00
12219;BME280;6172;42.646;23.344;2022-12-29T02:08:19;95503.59;;;2.38;100.00
12219;BME280;6172;42.646;23.344;2022-12-29T02:10:47;95515.50;;;2.37;100.00
12219;BME280;6172;42.646;23.344;2022-12-29T02:13:15;95499.81;;;2.39;100.00
12219;BME280;6172;42.646;23.344;2022-12-29T02:15:50;95498.53;;;2.49;100.00
12219;BME280;6172;42.646;23.344;2022-12-29T02:18:28;95499.63;;;2.20;100.00
12219;BME280;6172;42.646;23.344;2022-12-29T02:21:24;95502.16;;;2.41;100.00
12219;BME280;6172;42.646;23.344;2022-12-29T02:27:14;95506.13;;;2.47;100.00
12219;BME280;6172;42.646;23.344;2022-12-29T02:30:03;95498.69;;;2.28;100.00
12219;BME280;6172;42.646;23.344;2022-12-29T02:32:37;95507.91;;;2.27;100.00
12219;BME280;6172;42.646;23.344;2022-12-29T02:35:12;95505.88;;;2.36;100.00
12219;BME280;6172;42.646;23.344;2022-12-29T02:37:43;95497.88;;;2.40;100.00
12219;BME280;6172;42.646;23.344;2022-12-29T02:40:24;95500.16;;;2.26;100.00
12219;BME280;6172;42.646;23.344;2022-12-29T02:43:00;95507.91;;;2.27;100.00
12219;BME280;6172;42.646;23.344;2022-12-29T02:45:32;95499.50;;;2.29;100.00
12219;BME280;6172;42.646;23.344;2022-12-29T02:48:08;95508.63;;;2.40;100.00
12219;BME280;6172;42.646;23.344;2022-12-29T02:50:39;95506.09;;;2.31;100.00
12219;BME280;6172;42.646;23.344;2022-12-29T02:53:11;95500.97;;;2.26;100.00
12219;BME280;6172;42.646;23.344;2022-12-29T02:55:39;95508.09;;;2.34;100.00
12219;BME280;6172;42.646;23.344;2022-12-29T02:58:16;95501.81;;;2.42;100.00
12219;BME280;6172;42.646;23.344;2022-12-29T03:00:54;95497.97;;;2.43;100.00
12219;BME280;6172;42.646;23.344;2022-12-29T03:03:29;95493.13;;;2.49;100.00
12219;BME280;6172;42.646;23.344;2022-12-29T03:06:10;95492.56;;;2.55;100.00
12219;BME280;6172;42.646;23.344;2022-12-29T03:08:44;95487.78;;;2.64;100.00
12219;BME280;6172;42.646;23.344;2022-12-29T03:11:15;95489.31;;;2.50;100.00
12219;BME280;6172;42.646;23.344;2022-12-29T03:14:04;95489.13;;;2.43;100.00
12219;BME280;6172;42.646;23.344;2022-12-29T03:16:55;95486.34;;;2.39;100.00
12219;BME280;6172;42.646;23.344;2022-12-29T03:19:28;95497.31;;;2.46;100.00
12219;BME280;6172;42.646;23.344;2022-12-29T03:21:59;95484.19;;;2.45;100.00
12219;BME280;6172;42.646;23.344;2022-12-29T03:24:47;95485.59;;;1.99;100.00
12219;BME280;6172;42.646;23.344;2022-12-29T03:27:18;95474.78;;;2.11;100.00
12219;BME280;6172;42.646;23.344;2022-12-29T03:29:50;95488.03;;;2.04;100.00
12219;BME280;6172;42.646;23.344;2022-12-29T03:32:22;95486.88;;;2.17;100.00
12219;BME280;6172;42.646;23.344;2022-12-29T03:34:53;95486.38;;;2.27;100.00
12219;BME280;6172;42.646;23.344;2022-12-29T03:37:23;95484.34;;;2.36;100.00
12219;BME280;6172;42.646;23.344;2022-12-29T03:39:52;95489.38;;;2.38;100.00
12219;BME280;6172;42.646;23.344;2022-12-29T03:42:20;95489.53;;;2.29;100.00
12219;BME280;6172;42.646;23.344;2022-12-29T03:44:53;95482.16;;;2.14;100.00
12219;BME280;6172;42.646;23.344;2022-12-29T03:47:21;95486.78;;;2.02;100.00
12219;BME280;6172;42.646;23.344;2022-12-29T03:49:48;95492.97;;;1.90;100.00
12219;BME280;6172;42.646;23.344;2022-12-29T03:52:17;95501.91;;;2.06;100.00
12219;BME280;6172;42.646;23.344;2022-12-29T03:54:44;95507.75;;;1.96;100.00
12219;BME280;6172;42.646;23.344;2022-12-29T03:57:11;95507.31;;;1.94;100.00
12219;BME280;6172;42.646;23.344;2022-12-29T03:59:38;95501.38;;;1.77;100.00
12219;BME280;6172;42.646;23.344;2022-12-29T04:02:05;95515.63;;;1.65;100.00
12219;BME280;6172;42.646;23.344;2022-12-29T04:04:32;95512.25;;;1.68;100.00
12219;BME280;6172;42.646;23.344;2022-12-29T04:06:58;95519.88;;;1.78;100.00
12219;BME280;6172;42.646;23.344;2022-12-29T04:09:27;95520.53;;;1.75;100.00
12219;BME280;6172;42.646;23.344;2022-12-29T04:11:55;95515.72;;;1.81;100.00
12219;BME280;6172;42.646;23.344;2022-12-29T04:14:21;95517.03;;;1.99;100.00
12219;BME280;6172;42.646;23.344;2022-12-29T04:16:48;95510.25;;;1.89;100.00
12219;BME280;6172;42.646;23.344;2022-12-29T04:19:15;95516.63;;;1.25;100.00
12219;BME280;6172;42.646;23.344;2022-12-29T04:21:42;95523.66;;;1.29;100.00
12219;BME280;6172;42.646;23.344;2022-12-29T04:24:09;95519.09;;;1.30;100.00
12219;BME280;6172;42.646;23.344;2022-12-29T04:26:37;95518.31;;;1.41;100.00
12219;BME280;6172;42.646;23.344;2022-12-29T04:29:04;95525.47;;;1.13;100.00
12219;BME280;6172;42.646;23.344;2022-12-29T04:31:31;95516.31;;;0.81;100.00
12219;BME280;6172;42.646;23.344;2022-12-29T04:33:58;95538.16;;;0.92;100.00
12219;BME280;6172;42.646;23.344;2022-12-29T04:36:25;95539.19;;;1.00;100.00
12219;BME280;6172;42.646;23.344;2022-12-29T04:38:52;95515.69;;;0.97;100.00
12219;BME280;6172;42.646;23.344;2022-12-29T04:41:19;95541.19;;;1.03;100.00
12219;BME280;6172;42.646;23.344;2022-12-29T04:43:47;95544.13;;;1.10;100.00
12219;BME280;6172;42.646;23.344;2022-12-29T04:46:14;95534.63;;;1.24;100.00
12219;BME280;6172;42.646;23.344;2022-12-29T04:48:41;95546.38;;;1.20;100.00
12219;BME280;6172;42.646;23.344;2022-12-29T04:51:08;95549.97;;;1.36;100.00
12219;BME280;6172;42.646;23.344;2022-12-29T04:53:36;95544.16;;;1.34;100.00
12219;BME280;6172;42.646;23.344;2022-12-29T04:56:03;95556.56;;;1.38;100.00
12219;BME280;6172;42.646;23.344;2022-12-29T04:58:30;95542.03;;;1.39;100.00
12219;BME280;6172;42.646;23.344;2022-12-29T05:00:59;95550.75;;;1.48;100.00
12219;BME280;6172;42.646;23.344;2022-12-29T05:03:26;95549.97;;;1.48;100.00
12219;BME280;6172;42.646;23.344;2022-12-29T05:05:53;95551.44;;;1.45;100.00
12219;BME280;6172;42.646;23.344;2022-12-29T05:08:20;95543.75;;;1.68;100.00
12219;BME280;6172;42.646;23.344;2022-12-29T05:10:49;95541.59;;;1.49;100.00
12219;BME280;6172;42.646;23.344;2022-12-29T05:13:16;95556.38;;;1.67;100.00
12219;BME280;6172;42.646;23.344;2022-12-29T05:15:47;95553.13;;;1.74;100.00
12219;BME280;6172;42.646;23.344;2022-12-29T05:18:16;95550.44;;;1.62;100.00
12219;BME280;6172;42.646;23.344;2022-12-29T05:20:43;95547.31;;;1.72;100.00
12219;BME280;6172;42.646;23.344;2022-12-29T05:23:10;95536.13;;;1.82;100.00
12219;BME280;6172;42.646;23.344;2022-12-29T05:25:37;95541.38;;;1.66;100.00
12219;BME280;6172;42.646;23.344;2022-12-29T05:28:04;95540.47;;;1.74;100.00
12219;BME280;6172;42.646;23.344;2022-12-29T05:30:31;95539.91;;;1.81;100.00
12219;BME280;6172;42.646;23.344;2022-12-29T05:32:57;95535.31;;;1.69;100.00
12219;BME280;6172;42.646;23.344;2022-12-29T05:35:26;95546.06;;;1.69;100.00
12219;BME280;6172;42.646;23.344;2022-12-29T05:37:53;95536.56;;;1.72;100.00
12219;BME280;6172;42.646;23.344;2022-12-29T05:40:20;95543.97;;;1.75;100.00
12219;BME280;6172;42.646;23.344;2022-12-29T05:42:47;95545.06;;;1.74;100.00
12219;BME280;6172;42.646;23.344;2022-12-29T05:45:14;95548.09;;;1.84;100.00
12219;BME280;6172;42.646;23.344;2022-12-29T05:47:41;95545.41;;;1.72;100.00
12219;BME280;6172;42.646;23.344;2022-12-29T05:50:08;95546.19;;;1.85;100.00
12219;BME280;6172;42.646;23.344;2022-12-29T05:52:36;95558.72;;;1.93;100.00
12219;BME280;6172;42.646;23.344;2022-12-29T05:55:03;95557.91;;;2.04;100.00
12219;BME280;6172;42.646;23.344;2022-12-29T05:57:30;95570.56;;;2.16;100.00
12219;BME280;6172;42.646;23.344;2022-12-29T05:59:57;95555.75;;;2.22;100.00
12219;BME280;6172;42.646;23.344;2022-12-29T06:02:24;95568.78;;;2.08;100.00
12219;BME280;6172;42.646;23.344;2022-12-29T06:04:51;95556.34;;;2.03;100.00
12219;BME280;6172;42.646;23.344;2022-12-29T06:07:17;95551.41;;;2.17;100.00
12219;BME280;6172;42.646;23.344;2022-12-29T06:09:46;95572.56;;;2.19;100.00
12219;BME280;6172;42.646;23.344;2022-12-29T06:12:13;95562.38;;;2.12;100.00
12219;BME280;6172;42.646;23.344;2022-12-29T06:14:39;95572.25;;;2.20;100.00
12219;BME280;6172;42.646;23.344;2022-12-29T06:17:07;95570.56;;;2.28;100.00
12219;BME280;6172;42.646;23.344;2022-12-29T06:19:35;95572.00;;;2.25;100.00
12219;BME280;6172;42.646;23.344;2022-12-29T06:22:02;95573.13;;;2.24;100.00
12219;BME280;6172;42.646;23.344;2022-12-29T06:24:30;95564.59;;;2.34;100.00
12219;BME280;6172;42.646;23.344;2022-12-29T06:26:58;95569.59;;;2.48;100.00
12219;BME280;6172;42.646;23.344;2022-12-29T06:29:27;95571.47;;;2.59;100.00
12219;BME280;6172;42.646;23.344;2022-12-29T06:31:55;95565.00;;;2.76;100.00
12219;BME280;6172;42.646;23.344;2022-12-29T06:34:23;95565.78;;;2.88;100.00
12219;BME280;6172;42.646;23.344;2022-12-29T06:36:50;95561.16;;;3.48;100.00
12219;BME280;6172;42.646;23.344;2022-12-29T06:39:17;95560.16;;;4.02;100.00
12219;BME280;6172;42.646;23.344;2022-12-29T06:41:44;95558.41;;;4.25;100.00
12219;BME280;6172;42.646;23.344;2022-12-29T06:44:12;95556.06;;;4.77;100.00
12219;BME280;6172;42.646;23.344;2022-12-29T06:46:39;95541.66;;;4.35;100.00
12219;BME280;6172;42.646;23.344;2022-12-29T06:49:06;95543.41;;;4.43;100.00
12219;BME280;6172;42.646;23.344;2022-12-29T06:51:33;95550.09;;;4.15;100.00
12219;BME280;6172;42.646;23.344;2022-12-29T06:53:59;95559.50;;;3.90;100.00
12219;BME280;6172;42.646;23.344;2022-12-29T06:56:26;95567.13;;;3.88;100.00
12219;BME280;6172;42.646;23.344;2022-12-29T06:58:53;95572.19;;;3.74;100.00
12219;BME280;6172;42.646;23.344;2022-12-29T07:01:22;95574.66;;;3.63;100.00
12219;BME280;6172;42.646;23.344;2022-12-29T07:03:49;95575.34;;;3.60;100.00
12219;BME280;6172;42.646;23.344;2022-12-29T07:06:16;95567.66;;;3.78;100.00
12219;BME280;6172;42.646;23.344;2022-12-29T07:08:43;95568.91;;;3.65;100.00
12219;BME280;6172;42.646;23.344;2022-12-29T07:11:10;95578.00;;;4.07;100.00
12219;BME280;6172;42.646;23.344;2022-12-29T07:13:37;95564.34;;;4.50;100.00
12219;BME280;6172;42.646;23.344;2022-12-29T07:16:08;95566.59;;;4.82;100.00
12219;BME280;6172;42.646;23.344;2022-12-29T07:18:36;95559.59;;;5.19;100.00
12219;BME280;6172;42.646;23.344;2022-12-29T07:21:04;95548.94;;;5.07;100.00
12219;BME280;6172;42.646;23.344;2022-12-29T07:23:30;95554.63;;;5.02;100.00
12219;BME280;6172;42.646;23.344;2022-12-29T07:26:00;95555.47;;;5.25;100.00
12219;BME280;6172;42.646;23.344;2022-12-29T07:28:27;95551.06;;;5.40;100.00
12219;BME280;6172;42.646;23.344;2022-12-29T07:30:54;95547.78;;;5.50;100.00
12219;BME280;6172;42.646;23.344;2022-12-29T07:33:21;95552.22;;;5.84;100.00
12219;BME280;6172;42.646;23.344;2022-12-29T07:35:49;95541.69;;;6.02;100.00
12219;BME280;6172;42.646;23.344;2022-12-29T07:38:17;95532.56;;;6.13;100.00
12219;BME280;6172;42.646;23.344;2022-12-29T07:40:44;95538.47;;;6.48;100.00
12219;BME280;6172;42.646;23.344;2022-12-29T07:43:11;95545.34;;;6.42;100.00
12219;BME280;6172;42.646;23.344;2022-12-29T07:45:38;95536.75;;;6.37;100.00
12219;BME280;6172;42.646;23.344;2022-12-29T07:48:05;95530.06;;;6.01;100.00
12219;BME280;6172;42.646;23.344;2022-12-29T07:50:33;95554.09;;;6.55;100.00
12219;BME280;6172;42.646;23.344;2022-12-29T07:53:01;95547.47;;;6.00;100.00
12219;BME280;6172;42.646;23.344;2022-12-29T07:55:29;95551.28;;;6.25;100.00
12219;BME280;6172;42.646;23.344;2022-12-29T07:57:56;95553.28;;;6.54;100.00
12219;BME280;6172;42.646;23.344;2022-12-29T08:00:23;95542.19;;;6.92;100.00
12219;BME280;6172;42.646;23.344;2022-12-29T08:02:50;95546.31;;;7.16;100.00
12219;BME280;6172;42.646;23.344;2022-12-29T08:05:17;95543.59;;;6.83;100.00
12219;BME280;6172;42.646;23.344;2022-12-29T08:07:45;95552.88;;;7.15;100.00
12219;BME280;6172;42.646;23.344;2022-12-29T08:10:14;95558.56;;;7.39;100.00
12219;BME280;6172;42.646;23.344;2022-12-29T08:12:42;95551.59;;;7.78;100.00
12219;BME280;6172;42.646;23.344;2022-12-29T08:15:11;95554.50;;;7.59;100.00
12219;BME280;6172;42.646;23.344;2022-12-29T08:17:38;95553.69;;;7.95;100.00
12219;BME280;6172;42.646;23.344;2022-12-29T08:20:06;95549.03;;;7.99;100.00
12219;BME280;6172;42.646;23.344;2022-12-29T08:22:33;95551.66;;;7.85;100.00
12219;BME280;6172;42.646;23.344;2022-12-29T08:25:02;95547.41;;;7.91;100.00
12219;BME280;6172;42.646;23.344;2022-12-29T08:27:31;95545.72;;;8.24;100.00
12219;BME280;6172;42.646;23.344;2022-12-29T08:29:58;95545.22;;;8.07;100.00
12219;BME280;6172;42.646;23.344;2022-12-29T08:32:25;95550.00;;;8.25;100.00
12219;BME280;6172;42.646;23.344;2022-12-29T08:34:53;95543.72;;;8.13;100.00
12219;BME280;6172;42.646;23.344;2022-12-29T08:37:20;95542.16;;;8.13;100.00
12219;BME280;6172;42.646;23.344;2022-12-29T08:39:47;95547.97;;;8.14;100.00
12219;BME280;6172;42.646;23.344;2022-12-29T08:42:14;95538.16;;;8.47;100.00
12219;BME280;6172;42.646;23.344;2022-12-29T08:44:42;95541.38;;;8.66;100.00
12219;BME280;6172;42.646;23.344;2022-12-29T08:47:09;95534.41;;;8.72;100.00
12219;BME280;6172;42.646;23.344;2022-12-29T08:49:37;95536.03;;;8.91;100.00
12219;BME280;6172;42.646;23.344;2022-12-29T08:52:04;95532.16;;;8.85;100.00
12219;BME280;6172;42.646;23.344;2022-12-29T08:54:31;95540.66;;;8.80;100.00
12219;BME280;6172;42.646;23.344;2022-12-29T08:56:58;95537.59;;;8.95;100.00
12219;BME280;6172;42.646;23.344;2022-12-29T08:59:25;95533.22;;;8.70;100.00
12219;BME280;6172;42.646;23.344;2022-12-29T09:01:53;95526.81;;;9.20;100.00
12219;BME280;6172;42.646;23.344;2022-12-29T09:04:20;95522.56;;;9.26;97.18
12219;BME280;6172;42.646;23.344;2022-12-29T09:06:49;95525.75;;;9.56;96.07
12219;BME280;6172;42.646;23.344;2022-12-29T09:09:16;95509.38;;;9.28;94.94
12219;BME280;6172;42.646;23.344;2022-12-29T09:11:43;95515.09;;;8.95;93.42
12219;BME280;6172;42.646;23.344;2022-12-29T09:14:10;95516.72;;;9.20;94.43
12219;BME280;6172;42.646;23.344;2022-12-29T09:16:37;95512.91;;;9.53;91.69
12219;BME280;6172;42.646;23.344;2022-12-29T09:19:06;95507.88;;;9.72;88.63
12219;BME280;6172;42.646;23.344;2022-12-29T09:21:33;95508.69;;;9.87;85.88
12219;BME280;6172;42.646;23.344;2022-12-29T09:23:59;95505.16;;;9.90;84.78
12219;BME280;6172;42.646;23.344;2022-12-29T09:26:26;95503.22;;;9.83;81.31
12219;BME280;6172;42.646;23.344;2022-12-29T09:28:53;95505.16;;;9.76;82.91
12219;BME280;6172;42.646;23.344;2022-12-29T09:31:20;95503.25;;;9.94;82.11
12219;BME280;6172;42.646;23.344;2022-12-29T09:33:47;95498.97;;;9.96;82.70
12219;BME280;6172;42.646;23.344;2022-12-29T09:36:15;95497.75;;;9.73;81.53
12219;BME280;6172;42.646;23.344;2022-12-29T09:38:42;95502.81;;;9.81;81.95
12219;BME280;6172;42.646;23.344;2022-12-29T09:41:14;95500.47;;;9.80;81.10
12219;BME280;6172;42.646;23.344;2022-12-29T09:44:02;95489.63;;;10.08;81.39
12219;BME280;6172;42.646;23.344;2022-12-29T09:46:34;95496.63;;;10.05;81.89
12219;BME280;6172;42.646;23.344;2022-12-29T09:49:17;95489.63;;;10.15;79.62
12219;BME280;6172;42.646;23.344;2022-12-29T09:51:49;95487.22;;;10.45;78.67
12219;BME280;6172;42.646;23.344;2022-12-29T09:54:24;95483.28;;;10.53;76.67
12219;BME280;6172;42.646;23.344;2022-12-29T09:56:56;95479.38;;;10.68;74.79
12219;BME280;6172;42.646;23.344;2022-12-29T09:59:27;95474.78;;;10.44;75.16
12219;BME280;6172;42.646;23.344;2022-12-29T10:02:04;95476.72;;;10.40;75.36
12219;BME280;6172;42.646;23.344;2022-12-29T10:04:37;95472.00;;;10.55;77.77
12219;BME280;6172;42.646;23.344;2022-12-29T10:07:16;95455.94;;;10.81;72.49
12219;BME280;6172;42.646;23.344;2022-12-29T10:09:53;95462.22;;;10.71;72.90
12219;BME280;6172;42.646;23.344;2022-12-29T10:12:37;95455.19;;;10.74;71.90
12219;BME280;6172;42.646;23.344;2022-12-29T10:15:11;95462.69;;;10.45;75.17
12219;BME280;6172;42.646;23.344;2022-12-29T10:17:44;95445.13;;;10.57;75.28
12219;BME280;6172;42.646;23.344;2022-12-29T10:20:27;95454.03;;;10.71;72.73
12219;BME280;6172;42.646;23.344;2022-12-29T10:23:14;95452.91;;;10.55;73.73
12219;BME280;6172;42.646;23.344;2022-12-29T10:25:45;95451.72;;;10.66;72.93
12219;BME280;6172;42.646;23.344;2022-12-29T10:28:19;95449.31;;;10.86;71.32
12219;BME280;6172;42.646;23.344;2022-12-29T10:30:48;95445.19;;;10.43;74.69
12219;BME280;6172;42.646;23.344;2022-12-29T10:33:19;95451.00;;;10.48;74.30
12219;BME280;6172;42.646;23.344;2022-12-29T10:35:51;95443.31;;;9.97;77.44
12219;BME280;6172;42.646;23.344;2022-12-29T10:38:35;95431.22;;;10.26;81.72
12219;BME280;6172;42.646;23.344;2022-12-29T10:41:13;95437.03;;;10.35;83.95
12219;BME280;6172;42.646;23.344;2022-12-29T10:43:45;95432.38;;;10.22;84.98
12219;BME280;6172;42.646;23.344;2022-12-29T10:46:15;95437.38;;;10.48;81.79
12219;BME280;6172;42.646;23.344;2022-12-29T10:48:44;95428.28;;;10.83;79.52
12219;BME280;6172;42.646;23.344;2022-12-29T10:51:30;95432.56;;;10.84;80.15
12219;BME280;6172;42.646;23.344;2022-12-29T10:54:04;95423.66;;;10.69;83.24
12219;BME280;6172;42.646;23.344;2022-12-29T10:56:34;95416.44;;;11.10;79.88
12219;BME280;6172;42.646;23.344;2022-12-29T10:59:08;95415.22;;;11.18;76.60
12219;BME280;6172;42.646;23.344;2022-12-29T11:01:46;95420.19;;;11.37;74.59
12219;BME280;6172;42.646;23.344;2022-12-29T11:04:31;95408.22;;;11.17;71.51
12219;BME280;6172;42.646;23.344;2022-12-29T11:07:04;95409.66;;;11.39;72.26
12219;BME280;6172;42.646;23.344;2022-12-29T11:09:35;95397.06;;;10.94;79.78
12219;BME280;6172;42.646;23.344;2022-12-29T11:12:18;95399.91;;;11.38;74.18
12219;BME280;6172;42.646;23.344;2022-12-29T11:14:46;95395.28;;;11.32;71.36
12219;BME280;6172;42.646;23.344;2022-12-29T11:17:15;95400.03;;;11.68;69.14
12219;BME280;6172;42.646;23.344;2022-12-29T11:19:43;95400.81;;;11.72;68.63
12219;BME280;6172;42.646;23.344;2022-12-29T11:22:20;95387.44;;;11.37;68.80
12219;BME280;6172;42.646;23.344;2022-12-29T11:24:50;95391.78;;;11.31;70.05
12219;BME280;6172;42.646;23.344;2022-12-29T11:27:19;95393.44;;;11.15;71.55
12219;BME280;6172;42.646;23.344;2022-12-29T11:29:48;95387.19;;;11.14;71.06
12219;BME280;6172;42.646;23.344;2022-12-29T11:32:18;95382.72;;;10.80;74.36
12219;BME280;6172;42.646;23.344;2022-12-29T11:34:45;95386.63;;;10.79;75.81
12219;BME280;6172;42.646;23.344;2022-12-29T11:37:15;95391.59;;;10.91;74.54
12219;BME280;6172;42.646;23.344;2022-12-29T11:39:50;95384.22;;;10.88;74.92
12219;BME280;6172;42.646;23.344;2022-12-29T11:42:21;95376.38;;;11.00;73.83
12219;BME280;6172;42.646;23.344;2022-12-29T11:44:49;95376.78;;;10.95;76.08
12219;BME280;6172;42.646;23.344;2022-12-29T11:47:25;95370.66;;;10.74;76.06
12219;BME280;6172;42.646;23.344;2022-12-29T11:49:55;95381.47;;;10.91;75.97
12219;BME280;6172;42.646;23.344;2022-12-29T11:52:23;95370.75;;;11.21;73.32
12219;BME280;6172;42.646;23.344;2022-12-29T11:54:54;95373.47;;;10.63;74.35
12219;BME280;6172;42.646;23.344;2022-12-29T11:57:23;95372.72;;;10.56;78.54
12219;BME280;6172;42.646;23.344;2022-12-29T11:59:51;95362.53;;;10.70;77.29
12219;BME280;6172;42.646;23.344;2022-12-29T12:02:53;95374.19;;;10.71;76.95
12219;BME280;6172;42.646;23.344;2022-12-29T12:05:28;95369.53;;;10.68;77.59
12219;BME280;6172;42.646;23.344;2022-12-29T12:08:02;95369.28;;;11.13;74.19
12219;BME280;6172;42.646;23.344;2022-12-29T12:10:38;95365.53;;;10.86;75.95
12219;BME280;6172;42.646;23.344;2022-12-29T12:13:17;95364.03;;;10.78;75.93
12219;BME280;6172;42.646;23.344;2022-12-29T12:15:50;95362.88;;;10.76;77.28
12219;BME280;6172;42.646;23.344;2022-12-29T12:18:29;95355.53;;;10.66;78.69
12219;BME280;6172;42.646;23.344;2022-12-29T12:21:05;95355.63;;;10.44;80.72
12219;BME280;6172;42.646;23.344;2022-12-29T12:23:40;95350.63;;;10.29;81.69
12219;BME280;6172;42.646;23.344;2022-12-29T12:26:13;95347.59;;;10.09;83.76
12219;BME280;6172;42.646;23.344;2022-12-29T12:28:48;95356.47;;;10.31;83.96
12219;BME280;6172;42.646;23.344;2022-12-29T12:31:37;95346.72;;;10.37;83.46
12219;BME280;6172;42.646;23.344;2022-12-29T12:34:14;95343.22;;;10.33;83.40
12219;BME280;6172;42.646;23.344;2022-12-29T12:37:11;95340.03;;;10.52;82.76
12219;BME280;6172;42.646;23.344;2022-12-29T12:39:49;95347.88;;;10.36;82.95
12219;BME280;6172;42.646;23.344;2022-12-29T12:42:34;95344.22;;;9.49;91.11
12219;BME280;6172;42.646;23.344;2022-12-29T12:45:29;95343.41;;;9.56;92.58
12219;BME280;6172;42.646;23.344;2022-12-29T12:48:07;95346.16;;;9.59;92.96
12219;BME280;6172;42.646;23.344;2022-12-29T12:50:46;95346.16;;;9.59;92.91
12219;BME280;6172;42.646;23.344;2022-12-29T12:53:40;95333.69;;;9.62;93.24
12219;BME280;6172;42.646;23.344;2022-12-29T12:56:31;95336.00;;;9.60;94.05
12219;BME280;6172;42.646;23.344;2022-12-29T12:59:11;95351.16;;;9.92;90.23
12219;BME280;6172;42.646;23.344;2022-12-29T13:01:52;95342.22;;;9.95;90.10
12219;BME280;6172;42.646;23.344;2022-12-29T13:04:43;95346.47;;;9.79;91.63
12219;BME280;6172;42.646;23.344;2022-12-29T13:07:21;95340.22;;;10.03;90.78
12219;BME280;6172;42.646;23.344;2022-12-29T13:10:03;95340.91;;;10.24;89.08
12219;BME280;6172;42.646;23.344;2022-12-29T13:12:44;95324.59;;;10.21;87.22
12219;BME280;6172;42.646;23.344;2022-12-29T13:15:31;95342.28;;;9.18;96.74
12219;BME280;6172;42.646;23.344;2022-12-29T13:18:10;95353.13;;;9.64;96.08
12219;BME280;6172;42.646;23.344;2022-12-29T13:20:45;95346.91;;;9.63;95.18
12219;BME280;6172;42.646;23.344;2022-12-29T13:23:19;95343.38;;;9.70;96.05
12219;BME280;6172;42.646;23.344;2022-12-29T13:25:55;95353.47;;;9.80;95.77
12219;BME280;6172;42.646;23.344;2022-12-29T13:28:28;95353.13;;;9.60;97.23